Time;durP1;ratioP1;P1;durP2;ratioP2;P2;SDS_P1;SDS_P2;PMS_P1;PMS_P2;Temp;Humidity;BMP_temperature;BMP_pressure;BME280_temperature;BME280_humidity;BME280_pressure;Samples;Min_cycle;Max_cycle;Signal;HPM_P1;HPM_P2
2021/11/13 00:01:51;;;;;;;49.53;30.05;;;9.00;99.90;;;;;;4123179;28;20031;-77
2021/11/13 00:03:51;;;;;;;45.70;32.28;;;9.00;99.90;;;;;;4128240;28;20070;-77
2021/11/13 00:05:52;;;;;;;41.53;25.25;;;9.10;99.90;;;;;;4128153;28;20042;-77
2021/11/13 00:07:52;;;;;;;46.25;29.65;;;9.10;99.90;;;;;;4127344;28;20061;-76
2021/11/13 00:09:53;;;;;;;47.47;30.00;;;9.10;99.90;;;;;;4128808;28;20044;-78
2021/11/13 00:11:57;;;;;;;40.30;27.48;;;9.10;99.90;;;;;;4126119;28;20044;-77
2021/11/13 00:14:01;;;;;;;;;;;9.20;99.90;;;;;;4128817;28;20093;-77
2021/11/13 00:16:02;;;;;;;48.50;29.20;;;9.20;99.90;;;;;;4127743;28;20353;-78
2021/11/13 00:18:03;;;;;;;47.20;30.77;;;9.20;99.90;;;;;;4127274;28;20050;-78
2021/11/13 00:20:05;;;;;;;45.38;26.25;;;9.20;99.90;;;;;;4127144;28;20038;-78
2021/11/13 00:22:06;;;;;;;49.00;30.00;;;9.20;99.90;;;;;;4121627;28;20491;-78
2021/11/13 00:24:07;;;;;;;45.20;27.48;;;9.10;99.90;;;;;;4127187;28;20101;-78
2021/11/13 00:26:08;;;;;;;52.70;33.20;;;9.10;99.90;;;;;;4119668;28;20065;-79
2021/11/13 00:28:08;;;;;;;45.85;28.27;;;9.10;99.90;;;;;;4126305;28;20121;-78
2021/11/13 00:30:12;;;;;;;51.58;33.03;;;9.10;99.90;;;;;;4119102;28;20487;-78
2021/11/13 00:32:12;;;;;;;55.13;33.15;;;9.10;99.90;;;;;;4128127;28;20080;-78
2021/11/13 00:34:13;;;;;;;49.13;33.95;;;9.10;99.90;;;;;;4125715;28;20051;-77
2021/11/13 00:36:14;;;;;;;47.42;32.70;;;9.10;99.90;;;;;;4145137;28;20097;-78
2021/11/13 00:38:14;;;;;;;43.90;28.25;;;9.10;99.90;;;;;;4121508;28;20085;-76
2021/11/13 00:40:18;;;;;;;49.60;31.63;;;9.10;99.90;;;;;;4128385;28;20509;-78
2021/11/13 00:42:19;;;;;;;53.42;32.90;;;9.10;99.90;;;;;;4121982;28;20023;-78
2021/11/13 00:44:20;;;;;;;57.30;32.70;;;9.20;99.90;;;;;;4122843;28;20529;-78
2021/11/13 00:46:20;;;;;;;47.30;30.23;;;9.20;99.90;;;;;;4129396;28;20082;-78
2021/11/13 00:48:21;;;;;;;48.55;30.75;;;9.10;99.90;;;;;;4127535;28;20062;-78
2021/11/13 00:50:22;;;;;;;41.75;28.52;;;9.20;99.90;;;;;;4129427;28;20030;-77
2021/11/13 00:52:23;;;;;;;51.78;32.28;;;9.30;99.90;;;;;;4129533;28;20133;-78
2021/11/13 00:54:24;;;;;;;52.28;32.75;;;9.20;99.90;;;;;;4128693;28;20113;-78
2021/11/13 00:56:24;;;;;;;49.38;31.40;;;9.20;99.90;;;;;;4118584;28;20019;-77
2021/11/13 00:58:26;;;;;;;44.85;28.58;;;9.20;99.90;;;;;;4123840;28;20035;-78
2021/11/13 01:00:27;;;;;;;47.55;30.65;;;9.20;99.90;;;;;;4120213;28;20038;-78
2021/11/13 01:02:27;;;;;;;53.08;32.03;;;9.20;99.90;;;;;;4130013;28;20035;-78
2021/11/13 01:04:28;;;;;;;48.40;29.63;;;9.20;99.90;;;;;;4121431;28;20027;-77
2021/11/13 01:06:29;;;;;;;47.35;29.02;;;9.20;99.90;;;;;;4125011;28;20173;-78
2021/11/13 01:08:30;;;;;;;52.78;31.58;;;9.20;99.90;;;;;;4126808;28;20174;-78
2021/11/13 01:10:31;;;;;;;45.47;27.75;;;9.20;99.90;;;;;;4124917;28;20046;-78
2021/11/13 01:12:31;;;;;;;44.20;27.13;;;9.20;99.90;;;;;;4126957;28;20556;-78
2021/11/13 01:14:39;;;;;;;45.22;29.60;;;9.30;99.90;;;;;;4125207;28;20379;-78
2021/11/13 01:16:40;;;;;;;44.35;29.95;;;9.40;99.90;;;;;;4123669;28;20674;-78
2021/11/13 01:18:41;;;;;;;41.15;28.23;;;9.40;99.90;;;;;;4128289;28;20034;-77
2021/11/13 01:20:42;;;;;;;49.35;29.48;;;9.40;99.90;;;;;;4130432;28;20049;-78
2021/11/13 01:22:43;;;;;;;44.83;29.35;;;9.30;99.90;;;;;;4125922;28;20035;-78
2021/11/13 01:24:44;;;;;;;43.72;28.10;;;9.30;99.90;;;;;;4125199;28;20031;-77
2021/11/13 01:26:46;;;;;;;43.33;28.95;;;9.40;99.90;;;;;;4128610;28;20034;-78
2021/11/13 01:28:47;;;;;;;37.00;25.83;;;9.40;99.90;;;;;;4128162;28;20494;-78
2021/11/13 01:30:48;;;;;;;37.75;24.27;;;9.50;99.90;;;;;;4128247;28;20774;-78
2021/11/13 01:32:48;;;;;;;35.80;25.63;;;9.60;99.90;;;;;;4125302;28;20026;-77
2021/11/13 01:34:49;;;;;;;39.67;25.90;;;9.70;99.90;;;;;;4128191;28;20481;-78
2021/11/13 01:36:50;;;;;;;39.42;26.35;;;9.60;99.90;;;;;;4127759;28;20038;-78
2021/11/13 01:38:51;;;;;;;42.13;28.10;;;9.60;99.90;;;;;;4128460;28;20035;-78
2021/11/13 01:40:52;;;;;;;43.67;29.65;;;9.60;99.90;;;;;;4127824;28;20023;-77
2021/11/13 01:42:58;;;;;;;40.65;28.67;;;9.50;99.90;;;;;;4126035;28;20105;-78
2021/11/13 01:45:00;;;;;;;33.40;21.13;;;9.50;99.90;;;;;;4128447;28;20041;-78
2021/11/13 01:47:02;;;;;;;39.88;27.33;;;9.50;99.90;;;;;;4121257;28;20082;-77
2021/11/13 01:49:04;;;;;;;39.03;24.15;;;9.60;99.90;;;;;;4127434;28;20061;-78
2021/11/13 01:51:24;;;;;;;44.33;28.17;;;9.60;99.90;;;;;;4131092;28;20039;-77
2021/11/13 01:53:27;;;;;;;41.03;25.45;;;9.60;99.90;;;;;;4123378;28;20113;-78
2021/11/13 01:55:29;;;;;;;32.97;22.17;;;9.60;99.90;;;;;;4128674;28;20053;-77
2021/11/13 01:57:43;;;;;;;40.47;27.23;;;9.60;99.90;;;;;;4129712;28;20038;-77
2021/11/13 01:59:44;;;;;;;34.50;22.73;;;9.60;99.90;;;;;;4132044;28;20034;-77
2021/11/13 02:01:45;;;;;;;34.05;22.27;;;9.50;99.90;;;;;;4129133;28;20504;-78
2021/11/13 02:03:47;;;;;;;28.88;21.05;;;9.50;99.90;;;;;;4129332;28;20086;-78
2021/11/13 02:05:48;;;;;;;38.80;23.73;;;9.50;99.90;;;;;;4130033;28;20474;-78
2021/11/13 02:07:49;;;;;;;37.83;26.35;;;9.50;99.90;;;;;;4146956;28;20046;-78
2021/11/13 02:09:50;;;;;;;38.78;24.77;;;9.50;99.90;;;;;;4130348;28;20406;-78
2021/11/13 02:11:51;;;;;;;33.85;23.05;;;9.50;99.90;;;;;;4130983;28;20038;-78
2021/11/13 02:13:54;;;;;;;46.55;27.30;;;9.50;99.90;;;;;;4124877;28;20126;-78
2021/11/13 02:15:54;;;;;;;35.35;24.75;;;9.50;99.90;;;;;;4130050;28;20042;-78
2021/11/13 02:17:57;;;;;;;47.38;28.50;;;9.50;99.90;;;;;;4129065;28;20074;-78
2021/11/13 02:20:14;;;;;;;43.80;29.77;;;9.50;99.90;;;;;;4129587;28;20450;-78
2021/11/13 02:22:15;;;;;;;45.78;27.70;;;9.40;99.90;;;;;;4127304;28;20086;-78
2021/11/13 02:24:16;;;;;;;43.13;28.58;;;9.40;99.90;;;;;;4129784;28;20101;-79
2021/11/13 02:26:16;;;;;;;46.30;28.40;;;9.40;99.90;;;;;;4131593;28;20112;-78
2021/11/13 02:28:20;;;;;;;44.60;31.67;;;9.40;99.90;;;;;;4127853;28;20035;-79
2021/11/13 02:30:20;;;;;;;;;;;9.40;99.90;;;;;;4131056;28;20486;-78
2021/11/13 02:32:21;;;;;;;51.63;29.65;;;9.40;99.90;;;;;;4127709;28;19921;-78
2021/11/13 02:34:23;;;;;;;47.20;28.08;;;9.40;99.90;;;;;;4129434;28;20057;-78
2021/11/13 02:36:24;;;;;;;42.78;25.60;;;9.50;99.90;;;;;;4129613;28;20035;-78
2021/11/13 02:38:36;;;;;;;38.75;28.90;;;9.50;99.90;;;;;;4121368;28;20029;-79
2021/11/13 02:40:40;;;;;;;54.72;30.20;;;9.60;99.90;;;;;;4128875;28;20030;-78
2021/11/13 02:42:43;;;;;;;45.30;28.30;;;9.50;99.90;;;;;;4128165;28;20030;-79
2021/11/13 02:44:45;;;;;;;47.00;29.58;;;9.50;99.90;;;;;;4147712;28;20037;-79
2021/11/13 02:46:46;;;;;;;49.53;29.73;;;9.50;99.90;;;;;;4124594;28;20041;-78
2021/11/13 02:48:48;;;;;;;46.72;31.95;;;9.50;99.90;;;;;;4124545;28;20745;-78
2021/11/13 02:50:50;;;;;;;51.17;31.85;;;9.50;99.90;;;;;;4129875;28;20473;-78
2021/11/13 02:52:54;;;;;;;48.63;33.45;;;9.50;99.90;;;;;;4118420;28;20035;-78
2021/11/13 02:54:54;;;;;;;50.63;31.67;;;9.50;99.90;;;;;;4128583;28;20039;-78
2021/11/13 02:56:55;;;;;;;46.90;31.77;;;9.50;99.90;;;;;;4127981;28;20070;-78
2021/11/13 02:58:56;;;;;;;46.40;33.35;;;9.50;99.90;;;;;;4126523;28;20022;-78
2021/11/13 03:01:04;;;;;;;52.10;33.20;;;9.40;99.90;;;;;;4129341;28;20336;-78
2021/11/13 03:03:05;;;;;;;46.67;31.45;;;9.50;99.90;;;;;;4127930;28;20030;-78
2021/11/13 03:05:22;;;;;;;50.92;32.83;;;9.50;99.90;;;;;;4117167;28;20073;-78
2021/11/13 03:07:22;;;;;;;38.10;24.38;;;9.60;99.90;;;;;;4125840;28;20038;-77
2021/11/13 03:09:23;;;;;;;44.65;30.67;;;9.70;99.90;;;;;;4121255;28;20038;-78
2021/11/13 03:11:24;;;;;;;39.22;25.75;;;9.70;99.90;;;;;;4130262;28;20034;-78
2021/11/13 03:13:24;;;;;;;40.35;27.20;;;9.70;99.90;;;;;;4124914;28;20152;-78
2021/11/13 03:15:26;;;;;;;46.13;29.63;;;9.60;99.90;;;;;;4127261;28;20084;-78
2021/11/13 03:17:27;;;;;;;47.63;32.28;;;9.60;99.90;;;;;;4145033;28;20026;-78
2021/11/13 03:19:28;;;;;;;49.45;33.75;;;9.60;99.90;;;;;;4129112;28;20052;-78
2021/11/13 03:21:28;;;;;;;58.88;34.08;;;9.60;99.90;;;;;;4129848;28;20225;-78
2021/11/13 03:23:29;;;;;;;46.30;32.08;;;9.50;99.90;;;;;;4128384;28;20034;-78
2021/11/13 03:25:33;;;;;;;54.03;34.10;;;9.60;99.90;;;;;;4135985;28;20046;-79
2021/11/13 03:27:35;;;;;;;50.30;31.20;;;9.60;99.90;;;;;;4129448;28;20057;-78
2021/11/13 03:29:38;;;;;;;52.00;31.48;;;9.60;99.90;;;;;;4129993;28;20672;-78
2021/11/13 03:31:38;;;;;;;44.33;28.75;;;9.70;99.90;;;;;;4129279;28;20034;-78
2021/11/13 03:33:41;;;;;;;50.15;30.98;;;9.80;99.90;;;;;;4129190;28;20041;-78
2021/11/13 03:35:42;;;;;;;47.23;32.50;;;9.80;99.90;;;;;;4127724;28;20034;-77
2021/11/13 03:37:43;;;;;;;51.22;33.22;;;9.80;99.90;;;;;;4128923;28;20080;-78
2021/11/13 03:39:44;;;;;;;50.50;35.15;;;9.80;99.90;;;;;;4143309;28;20485;-78
2021/11/13 03:41:44;;;;;;;48.45;30.98;;;9.70;99.90;;;;;;4124571;28;20113;-77
2021/11/13 03:43:46;;;;;;;56.15;35.08;;;9.80;99.90;;;;;;4124267;28;20030;-78
2021/11/13 03:45:48;;;;;;;53.67;32.95;;;9.80;99.90;;;;;;4128961;28;20129;-78
2021/11/13 03:47:49;;;;;;;52.15;32.75;;;9.90;99.90;;;;;;4122354;28;20506;-78
2021/11/13 03:49:50;;;;;;;52.97;35.25;;;9.90;99.90;;;;;;4128335;28;20089;-78
2021/11/13 03:51:51;;;;;;;53.42;32.47;;;9.90;99.90;;;;;;4117944;28;20034;-77
2021/11/13 03:53:51;;;;;;;46.70;30.58;;;9.80;99.90;;;;;;4118316;28;20050;-78
2021/11/13 03:55:52;;;;;;;50.88;30.52;;;9.80;99.90;;;;;;4129842;28;20035;-78
2021/11/13 03:57:53;;;;;;;55.90;32.10;;;9.90;99.90;;;;;;4144765;28;20064;-78
2021/11/13 03:59:55;;;;;;;57.03;35.25;;;9.90;99.90;;;;;;4126020;28;20402;-78
2021/11/13 04:01:56;;;;;;;55.20;33.10;;;9.80;99.90;;;;;;4129630;28;20092;-78
2021/11/13 04:03:57;;;;;;;59.28;35.08;;;9.80;99.90;;;;;;4129352;28;20478;-79
2021/11/13 04:05:57;;;;;;;54.83;35.60;;;9.80;99.90;;;;;;4129419;28;20085;-79
2021/11/13 04:07:58;;;;;;;58.85;36.70;;;9.90;99.90;;;;;;4127886;28;20093;-78
2021/11/13 04:09:59;;;;;;;61.25;36.40;;;9.80;99.90;;;;;;4129754;28;20034;-78
2021/11/13 04:12:05;;;;;;;63.88;37.05;;;9.90;99.90;;;;;;4118396;28;20042;-78
2021/11/13 04:14:05;;;;;;;63.28;36.00;;;9.80;99.90;;;;;;4127820;28;20164;-79
2021/11/13 04:16:06;;;;;;;55.60;31.35;;;9.80;99.90;;;;;;4123158;28;20045;-78
2021/11/13 04:18:07;;;;;;;61.05;35.55;;;9.90;99.90;;;;;;4120921;28;20038;-78
2021/11/13 04:20:09;;;;;;;58.53;37.05;;;9.90;99.90;;;;;;4118235;28;20697;-78
2021/11/13 04:22:10;;;;;;;59.63;36.17;;;9.90;99.90;;;;;;4125119;28;20605;-78
2021/11/13 04:24:11;;;;;;;62.22;37.17;;;9.90;99.90;;;;;;4128915;28;20034;-79
2021/11/13 04:26:12;;;;;;;57.90;36.67;;;9.90;99.90;;;;;;4128691;28;20128;-79
2021/11/13 04:28:12;;;;;;;66.03;36.40;;;9.90;99.90;;;;;;4126967;28;20057;-79
2021/11/13 04:30:14;;;;;;;60.13;36.13;;;10.00;99.90;;;;;;4130139;28;20042;-79
2021/11/13 04:32:16;;;;;;;58.50;36.10;;;9.90;99.90;;;;;;4127543;28;21537;-79
2021/11/13 04:34:22;;;;;;;61.03;36.22;;;9.90;99.90;;;;;;4125338;28;20375;-78
2021/11/13 04:36:25;;;;;;;54.97;37.10;;;9.90;99.90;;;;;;4127183;28;20035;-78
2021/11/13 04:38:32;;;;;;;67.90;37.47;;;9.90;99.90;;;;;;4122194;28;20614;-78
2021/11/13 04:40:36;;;;;;;66.25;35.85;;;9.80;99.90;;;;;;4129098;28;20030;-78
2021/11/13 04:42:37;;;;;;;63.13;34.85;;;9.90;99.90;;;;;;4128134;28;20045;-79
2021/11/13 04:44:38;;;;;;;64.85;36.28;;;9.90;99.90;;;;;;4129582;28;20026;-79
2021/11/13 04:46:39;;;;;;;61.33;36.42;;;9.80;99.90;;;;;;4128145;28;20030;-79
2021/11/13 04:48:39;;;;;;;58.80;39.50;;;9.80;99.90;;;;;;4145249;28;20041;-79
2021/11/13 04:50:40;;;;;;;60.83;35.22;;;9.80;99.90;;;;;;4125939;28;20046;-79
2021/11/13 04:52:41;;;;;;;65.70;37.55;;;9.90;99.90;;;;;;4126974;28;20157;-79
2021/11/13 04:54:42;;;;;;;58.08;33.03;;;9.90;99.90;;;;;;4134483;28;20042;-79
2021/11/13 04:56:42;;;;;;;61.20;36.80;;;9.90;99.90;;;;;;4121233;28;20042;-79
2021/11/13 04:58:43;;;;;;;55.15;33.97;;;10.00;99.90;;;;;;4118533;28;20065;-78
2021/11/13 05:00:44;;;;;;;56.58;33.78;;;10.00;99.90;;;;;;4127028;28;20031;-79
2021/11/13 05:02:44;;;;;;;56.03;30.88;;;10.00;99.90;;;;;;4125557;28;20041;-78
2021/11/13 05:04:45;;;;;;;54.70;35.47;;;10.00;99.90;;;;;;4124765;28;20034;-79
2021/11/13 05:06:46;;;;;;;49.55;31.42;;;10.00;99.90;;;;;;4121445;28;20409;-78
2021/11/13 05:08:46;;;;;;;49.75;29.80;;;9.90;99.90;;;;;;4124328;28;20078;-78
2021/11/13 05:10:48;;;;;;;47.10;30.90;;;10.00;99.90;;;;;;4126079;28;20042;-79
2021/11/13 05:12:49;;;;;;;51.78;30.58;;;10.00;99.90;;;;;;4117968;28;20127;-79
2021/11/13 05:14:50;;;;;;;50.47;31.55;;;9.90;99.90;;;;;;4123433;28;20054;-79
2021/11/13 05:16:50;;;;;;;48.10;29.83;;;9.90;99.90;;;;;;4122516;28;20090;-79
2021/11/13 05:18:51;;;;;;;52.80;30.10;;;9.90;99.90;;;;;;4125622;28;20521;-79
2021/11/13 05:20:52;;;;;;;53.38;31.10;;;9.90;99.90;;;;;;4125113;28;20070;-79
2021/11/13 05:22:52;;;;;;;49.25;29.30;;;9.90;99.90;;;;;;4123937;28;20034;-79
2021/11/13 05:24:53;;;;;;;43.53;27.65;;;9.80;99.90;;;;;;4117718;28;20125;-79
2021/11/13 05:26:53;;;;;;;47.67;29.17;;;9.80;99.90;;;;;;4126334;28;20031;-80
2021/11/13 05:28:55;;;;;;;47.05;28.30;;;9.80;99.90;;;;;;4126974;28;20585;-80
2021/11/13 05:30:56;;;;;;;44.20;29.70;;;9.70;99.90;;;;;;4126418;28;20062;-79
2021/11/13 05:32:57;;;;;;;47.80;28.50;;;9.70;99.90;;;;;;4122155;28;20576;-79
2021/11/13 05:34:58;;;;;;;51.38;30.50;;;9.70;99.90;;;;;;4127313;28;20033;-79
2021/11/13 05:36:58;;;;;;;43.28;27.10;;;9.70;99.90;;;;;;4118832;28;20038;-79
2021/11/13 05:38:59;;;;;;;41.47;24.90;;;9.70;99.90;;;;;;4126114;28;20049;-79
2021/11/13 05:40:59;;;;;;;40.65;24.52;;;9.80;99.90;;;;;;4141524;28;20034;-80
2021/11/13 05:43:00;;;;;;;42.00;26.00;;;9.80;99.90;;;;;;4127461;28;20034;-80
2021/11/13 05:45:02;;;;;;;44.88;24.75;;;9.90;99.90;;;;;;4125122;28;20545;-80
2021/11/13 05:47:03;;;;;;;42.33;24.50;;;9.90;99.90;;;;;;4126646;28;20100;-79
2021/11/13 05:49:04;;;;;;;39.75;23.83;;;9.90;99.90;;;;;;4143205;28;20734;-79
2021/11/13 05:51:05;;;;;;;44.00;26.10;;;9.90;99.90;;;;;;4126787;28;20037;-79
2021/11/13 05:53:06;;;;;;;41.38;26.15;;;9.80;99.90;;;;;;4128526;28;20038;-79
2021/11/13 05:55:08;;;;;;;48.95;26.75;;;9.80;99.90;;;;;;4117323;28;20425;-79
2021/11/13 05:57:09;;;;;;;47.95;27.75;;;9.70;99.90;;;;;;4127004;28;20057;-79
2021/11/13 05:59:09;;;;;;;49.90;28.48;;;9.70;99.90;;;;;;4121440;28;20038;-79
2021/11/13 06:01:10;;;;;;;55.33;29.15;;;9.80;99.90;;;;;;4122106;28;20073;-78
2021/11/13 06:03:11;;;;;;;55.75;30.42;;;9.80;99.90;;;;;;4127340;28;20728;-79
2021/11/13 06:05:12;;;;;;;59.22;32.45;;;9.80;99.90;;;;;;4127395;28;20140;-79
2021/11/13 06:07:13;;;;;;;60.13;33.50;;;9.70;99.90;;;;;;4129947;28;20037;-79
2021/11/13 06:09:13;;;;;;;60.78;32.30;;;9.70;99.90;;;;;;4130081;28;20723;-79
2021/11/13 06:11:14;;;;;;;64.32;33.05;;;9.70;99.90;;;;;;4126325;28;20439;-79
2021/11/13 06:13:15;;;;;;;67.85;34.30;;;9.70;99.90;;;;;;4130310;28;20037;-79
2021/11/13 06:15:16;;;;;;;65.28;34.80;;;9.70;99.90;;;;;;4116499;28;20039;-78
2021/11/13 06:17:16;;;;;;;78.53;34.13;;;9.70;99.90;;;;;;4129242;28;20038;-78
2021/11/13 06:19:17;;;;;;;65.68;33.83;;;9.60;99.90;;;;;;4130962;28;20118;-79
2021/11/13 06:21:18;;;;;;;70.40;35.00;;;9.60;99.90;;;;;;4128703;28;20034;-79
2021/11/13 06:23:18;;;;;;;67.68;34.90;;;9.60;99.90;;;;;;4125814;28;20042;-79
2021/11/13 06:25:19;;;;;;;66.93;34.03;;;9.50;99.90;;;;;;4128574;28;20038;-79
2021/11/13 06:27:20;;;;;;;73.40;36.13;;;9.50;99.90;;;;;;4131226;28;20034;-79
2021/11/13 06:29:21;;;;;;;74.85;34.35;;;9.50;99.90;;;;;;4131101;28;20044;-79
2021/11/13 06:31:21;;;;;;;71.05;34.58;;;9.50;99.90;;;;;;4123664;28;20104;-79
2021/11/13 06:33:22;;;;;;;77.03;34.40;;;9.50;99.90;;;;;;4130037;28;20374;-79
2021/11/13 06:35:23;;;;;;;73.93;36.30;;;9.50;99.90;;;;;;4130942;28;20121;-79
2021/11/13 06:37:23;;;;;;;83.70;38.83;;;9.60;99.90;;;;;;4129428;28;20141;-79
2021/11/13 06:39:24;;;;;;;83.53;38.15;;;9.60;99.90;;;;;;4132526;28;20441;-79
2021/11/13 06:41:29;;;;;;;89.55;38.28;;;9.60;99.90;;;;;;4130873;28;20093;-79
2021/11/13 06:43:30;;;;;;;82.45;37.13;;;9.60;99.90;;;;;;4129731;28;20034;-80
2021/11/13 06:45:32;;;;;;;95.22;38.55;;;9.60;99.90;;;;;;4125897;28;20748;-80
2021/11/13 06:47:33;;;;;;;75.50;35.85;;;9.60;99.90;;;;;;4129982;28;20078;-78
2021/11/13 06:49:34;;;;;;;77.10;35.20;;;9.70;99.90;;;;;;4127620;28;20555;-78
2021/11/13 06:51:35;;;;;;;81.72;35.22;;;9.80;99.90;;;;;;4128393;28;20079;-78
2021/11/13 06:53:35;;;;;;;73.47;31.60;;;9.80;99.90;;;;;;4118369;28;20046;-78
2021/11/13 06:55:36;;;;;;;72.68;35.28;;;9.90;99.90;;;;;;4129111;28;20513;-78
2021/11/13 06:57:37;;;;;;;71.97;36.33;;;9.90;99.90;;;;;;4145200;28;20045;-78
2021/11/13 06:59:39;;;;;;;78.55;36.70;;;9.90;99.90;;;;;;4127776;28;20034;-78
2021/11/13 07:01:39;;;;;;;80.07;36.58;;;9.90;99.90;;;;;;4126881;28;20057;-78
2021/11/13 07:03:40;;;;;;;80.68;34.40;;;9.90;99.90;;;;;;4129926;28;20038;-78
2021/11/13 07:05:44;;;;;;;80.72;37.22;;;9.90;99.90;;;;;;4129627;28;20498;-78
2021/11/13 07:07:44;;;;;;;87.65;36.40;;;9.80;99.90;;;;;;4126375;28;20510;-79
2021/11/13 07:09:45;;;;;;;74.47;34.15;;;9.90;99.90;;;;;;4126970;28;20221;-79
2021/11/13 07:11:46;;;;;;;77.80;35.05;;;9.90;99.90;;;;;;4129290;28;20140;-79
2021/11/13 07:13:49;;;;;;;71.03;34.40;;;9.90;99.90;;;;;;4128790;28;20038;-79
2021/11/13 07:15:50;;;;;;;85.88;37.90;;;9.90;99.90;;;;;;4129938;28;20022;-80
2021/11/13 07:17:51;;;;;;;78.32;34.55;;;9.90;99.90;;;;;;4126210;28;20048;-80
2021/11/13 07:19:51;;;;;;;80.20;36.28;;;9.90;99.90;;;;;;4128109;28;20121;-80
2021/11/13 07:21:52;;;;;;;89.40;35.88;;;9.90;99.90;;;;;;4122234;28;20038;-79
2021/11/13 07:23:54;;;;;;;84.45;38.45;;;9.90;99.90;;;;;;4127049;28;20043;-80
2021/11/13 07:25:54;;;;;;;78.63;35.55;;;9.90;99.90;;;;;;4128160;28;20043;-80
2021/11/13 07:28:03;;;;;;;78.22;36.15;;;10.00;99.90;;;;;;4128255;28;20041;-79
2021/11/13 07:30:04;;;;;;;86.47;38.00;;;10.00;99.90;;;;;;4128483;28;20038;-80
2021/11/13 07:32:05;;;;;;;81.82;36.15;;;10.10;99.90;;;;;;4127956;28;20038;-80
2021/11/13 07:34:06;;;;;;;76.05;34.83;;;10.00;99.90;;;;;;4128567;28;20053;-80
2021/11/13 07:36:07;;;;;;;79.53;34.60;;;10.00;99.90;;;;;;4126727;28;20437;-80
2021/11/13 07:38:10;;;;;;;80.00;35.05;;;10.00;99.90;;;;;;4129067;28;20042;-80
2021/11/13 07:40:11;;;;;;;95.47;38.50;;;10.10;99.90;;;;;;4127104;28;20088;-80
2021/11/13 07:42:12;;;;;;;87.72;36.80;;;10.10;99.90;;;;;;4129826;28;20034;-80
2021/11/13 07:44:13;;;;;;;86.60;37.83;;;10.10;99.90;;;;;;4129360;28;20030;-80
2021/11/13 07:46:15;;;;;;;84.22;37.53;;;10.10;99.90;;;;;;4128829;28;20046;-80
2021/11/13 07:48:15;;;;;;;85.93;36.67;;;10.20;99.90;;;;;;4129851;28;20038;-81
2021/11/13 07:50:17;;;;;;;85.93;38.15;;;10.20;99.90;;;;;;4128260;28;20057;-81
2021/11/13 07:52:18;;;;;;;91.95;36.88;;;10.30;99.90;;;;;;4129478;28;20049;-81
2021/11/13 07:54:19;;;;;;;85.72;38.13;;;10.30;99.90;;;;;;4130854;28;20117;-81
2021/11/13 07:56:20;;;;;;;75.03;36.30;;;10.30;99.90;;;;;;4119365;28;20050;-80
2021/11/13 07:58:21;;;;;;;71.93;33.03;;;10.40;99.90;;;;;;4125480;28;20828;-80
2021/11/13 08:00:21;;;;;;;82.00;32.58;;;10.40;99.90;;;;;;4126435;28;20109;-79
2021/11/13 08:02:22;;;;;;;65.68;32.58;;;10.50;99.90;;;;;;4127196;28;20096;-79
2021/11/13 08:04:23;;;;;;;75.78;32.20;;;10.50;99.90;;;;;;4123067;28;20042;-80
2021/11/13 08:06:23;;;;;;;70.43;32.40;;;10.50;99.90;;;;;;4127941;28;20035;-80
2021/11/13 08:08:24;;;;;;;57.75;28.00;;;10.50;99.90;;;;;;4125748;28;20027;-80
2021/11/13 08:10:25;;;;;;;59.17;27.77;;;10.50;99.90;;;;;;4128092;28;20038;-80
2021/11/13 08:12:26;;;;;;;50.55;25.77;;;10.50;99.90;;;;;;4124798;28;20023;-79
2021/11/13 08:14:26;;;;;;;50.10;23.48;;;10.50;99.90;;;;;;4129766;28;20030;-80
2021/11/13 08:16:27;;;;;;;50.15;25.52;;;10.50;99.90;;;;;;4127725;28;20027;-80
2021/11/13 08:18:28;;;;;;;57.00;28.27;;;10.50;99.90;;;;;;4126412;28;20164;-80
2021/11/13 08:20:30;;;;;;;60.72;27.30;;;10.40;99.90;;;;;;4127597;28;20501;-80
2021/11/13 08:22:34;;;;;;;60.75;29.58;;;10.40;99.90;;;;;;4124375;28;20033;-80
2021/11/13 08:24:36;;;;;;;54.67;27.15;;;10.40;99.90;;;;;;4117325;28;20031;-80
2021/11/13 08:26:36;;;;;;;58.45;27.30;;;10.50;99.90;;;;;;4126472;28;20038;-80
2021/11/13 08:28:37;;;;;;;64.05;29.08;;;10.50;99.90;;;;;;4126952;28;20038;-80
2021/11/13 08:30:38;;;;;;;70.95;31.20;;;10.50;99.90;;;;;;4122809;28;20038;-80
2021/11/13 08:32:39;;;;;;;72.22;31.50;;;10.60;99.90;;;;;;4126614;28;20029;-80
2021/11/13 08:34:40;;;;;;;61.70;30.95;;;10.60;99.90;;;;;;4127732;28;20460;-79
2021/11/13 08:36:41;;;;;;;61.38;31.98;;;10.60;99.90;;;;;;4123705;28;20038;-79
2021/11/13 08:38:41;;;;;;;74.63;35.25;;;10.60;99.90;;;;;;4118048;28;20114;-80
2021/11/13 08:40:43;;;;;;;71.72;34.20;;;10.60;99.90;;;;;;4118726;28;20023;-79
2021/11/13 08:42:44;;;;;;;73.85;33.45;;;10.60;99.90;;;;;;4115962;28;20062;-80
2021/11/13 08:44:46;;;;;;;64.63;32.00;;;10.80;99.90;;;;;;4123759;28;20121;-79
2021/11/13 08:46:48;;;;;;;62.53;32.87;;;10.90;99.90;;;;;;4127762;28;20044;-79
2021/11/13 08:48:49;;;;;;;52.78;29.73;;;11.00;99.90;;;;;;4129706;28;20364;-80
2021/11/13 08:50:49;;;;;;;54.63;30.15;;;11.10;99.90;;;;;;4128131;28;20026;-80
2021/11/13 08:52:54;;;;;;;47.92;27.13;;;11.20;99.90;;;;;;4124357;28;20045;-80
2021/11/13 08:54:55;;;;;;;52.60;28.92;;;11.40;99.90;;;;;;4125060;28;20177;-79
2021/11/13 08:56:56;;;;;;;50.83;28.33;;;11.50;99.90;;;;;;4127696;28;20386;-79
2021/11/13 08:58:58;;;;;;;46.08;26.38;;;11.50;99.90;;;;;;4125385;28;20038;-79
2021/11/13 09:01:05;;;;;;;43.58;27.35;;;11.50;99.90;;;;;;4126423;28;20023;-79
2021/11/13 09:03:09;;;;;;;48.25;28.73;;;11.60;99.90;;;;;;4123637;28;20038;-79
2021/11/13 09:05:10;;;;;;;46.22;27.23;;;11.50;99.90;;;;;;4127412;28;20493;-79
2021/11/13 09:07:11;;;;;;;39.25;26.30;;;11.60;99.90;;;;;;4124437;28;20026;-79
2021/11/13 09:09:12;;;;;;;38.83;25.20;;;11.60;99.90;;;;;;4127944;28;20050;-79
2021/11/13 09:11:20;;;;;;;39.33;26.00;;;11.70;99.90;;;;;;4126489;28;20584;-79
2021/11/13 09:13:23;;;;;;;39.90;25.73;;;11.70;99.90;;;;;;4126241;28;20052;-79
2021/11/13 09:15:27;;;;;;;38.40;26.92;;;11.70;99.90;;;;;;4126033;28;20077;-79
2021/11/13 09:17:29;;;;;;;36.15;24.77;;;11.60;99.90;;;;;;4116523;28;20027;-79
2021/11/13 09:19:30;;;;;;;38.00;26.45;;;11.60;99.90;;;;;;4124546;28;20504;-79
2021/11/13 09:21:32;;;;;;;40.45;25.38;;;11.50;99.90;;;;;;4126431;28;20030;-79
2021/11/13 09:23:33;;;;;;;47.72;26.98;;;11.50;99.90;;;;;;4119895;28;20046;-79
2021/11/13 09:25:35;;;;;;;40.67;25.85;;;11.50;99.90;;;;;;4128352;28;20031;-79
2021/11/13 09:27:38;;;;;;;38.22;25.95;;;11.50;99.90;;;;;;4127915;28;20043;-80
2021/11/13 09:29:38;;;;;;;46.13;27.77;;;11.50;99.90;;;;;;4118792;28;20031;-80
2021/11/13 09:31:41;;;;;;;40.55;27.45;;;11.60;99.90;;;;;;4122654;28;20490;-79
2021/11/13 09:33:42;;;;;;;42.35;27.73;;;11.60;99.90;;;;;;4127741;28;20049;-79
2021/11/13 09:35:44;;;;;;;40.13;26.58;;;11.70;99.90;;;;;;4126079;28;20030;-79
2021/11/13 09:37:46;;;;;;;38.65;24.75;;;11.80;99.90;;;;;;4124122;28;20129;-79
2021/11/13 09:39:47;;;;;;;41.88;26.70;;;11.90;99.90;;;;;;4127329;28;20476;-80
2021/11/13 09:41:49;;;;;;;43.67;27.85;;;11.90;99.90;;;;;;4128074;28;20046;-80
2021/11/13 09:43:49;;;;;;;36.83;25.48;;;11.90;99.90;;;;;;4130508;28;20030;-80
2021/11/13 09:45:52;;;;;;;39.78;26.13;;;12.00;99.90;;;;;;4128506;28;20118;-79
2021/11/13 09:47:55;;;;;;;39.38;26.02;;;12.00;99.90;;;;;;4129787;28;20065;-80
2021/11/13 09:49:57;;;;;;;;;;;12.00;99.90;;;;;;4128687;28;20039;-79
2021/11/13 09:51:59;;;;;;;32.92;21.77;;;12.00;99.90;;;;;;4129647;28;20123;-80
2021/11/13 09:54:00;;;;;;;28.25;22.83;;;12.00;99.90;;;;;;4130026;28;20502;-80
2021/11/13 09:56:01;;;;;;;28.77;21.52;;;12.20;99.90;;;;;;4123781;28;20049;-79
2021/11/13 09:58:02;;;;;;;36.20;23.95;;;12.30;99.90;;;;;;4126541;28;20027;-79
2021/11/13 10:00:08;;;;;;;35.05;22.05;;;12.30;99.90;;;;;;4146160;28;20113;-79
2021/11/13 10:02:09;;;;;;;32.00;21.42;;;12.40;99.90;;;;;;4119648;28;20064;-79
2021/11/13 10:04:09;;;;;;;29.02;22.67;;;12.40;99.90;;;;;;4128895;28;20462;-80
2021/11/13 10:06:13;;;;;;;30.38;21.27;;;12.40;99.90;;;;;;4128723;28;20038;-79
2021/11/13 10:08:14;;;;;;;33.30;23.17;;;12.50;99.90;;;;;;4130325;28;20141;-79
2021/11/13 10:10:36;;;;;;;27.63;20.67;;;12.70;99.90;;;;;;4128854;28;20034;-79
2021/11/13 10:12:40;;;;;;;27.50;20.65;;;12.80;99.90;;;;;;4129376;28;20037;-79
2021/11/13 10:14:42;;;;;;;24.65;19.15;;;12.90;99.90;;;;;;4129792;28;20050;-79
2021/11/13 10:16:49;;;;;;;24.30;19.08;;;13.00;99.90;;;;;;4119794;28;20114;-79
2021/11/13 10:18:53;;;;;;;26.27;18.83;;;13.10;99.90;;;;;;4126873;28;20030;-79
2021/11/13 10:20:56;;;;;;;21.88;18.35;;;13.10;99.90;;;;;;4128856;28;20026;-78
2021/11/13 10:22:57;;;;;;;;;;;13.20;99.90;;;;;;4132638;28;20410;-79
2021/11/13 10:24:57;;;;;;;25.08;18.35;;;13.30;99.90;;;;;;4127802;28;20000;-79